Time;durP1;ratioP1;P1;durP2;ratioP2;P2;SDS_P1;SDS_P2;PMS_P1;PMS_P2;Temp;Humidity;BMP_temperature;BMP_pressure;BME280_temperature;BME280_humidity;BME280_pressure;Samples;Min_cycle;Max_cycle;Signal;HPM_P1;HPM_P2
2022/10/29 00:01:29;;;;;;;10.98;4.22;;;;;;;16.77;77.21;101278.63;4149211;28;20104;-67
2022/10/29 00:03:33;;;;;;;13.90;5.32;;;;;;;16.75;77.60;101280.41;4148818;28;20128;-67
2022/10/29 00:05:36;;;;;;;13.10;4.70;;;;;;;16.70;77.37;101280.34;4149247;28;20038;-67
2022/10/29 00:07:39;;;;;;;17.60;5.15;;;;;;;16.71;77.45;101282.13;4148344;28;20048;-67
2022/10/29 00:09:42;;;;;;;12.60;5.40;;;;;;;16.69;77.38;101278.63;4147755;28;20443;-67
2022/10/29 00:11:45;;;;;;;13.13;5.70;;;;;;;16.68;77.17;101282.13;4131606;28;20034;-67
2022/10/29 00:13:49;;;;;;;12.45;5.28;;;;;;;16.66;77.13;101282.97;4148572;28;20049;-67
2022/10/29 00:15:52;;;;;;;12.63;4.88;;;;;;;16.64;77.37;101290.00;4149063;28;20053;-67
2022/10/29 00:17:54;;;;;;;12.88;5.28;;;;;;;16.63;77.27;101277.72;4148993;28;20073;-67
2022/10/29 00:19:59;;;;;;;14.02;4.88;;;;;;;16.62;77.36;101279.50;4148959;28;20072;-67
2022/10/29 00:22:02;;;;;;;13.50;5.47;;;;;;;16.59;77.56;101284.72;4147320;28;20092;-67
2022/10/29 00:24:05;;;;;;;11.55;5.25;;;;;;;16.58;77.52;101275.97;4147330;28;20042;-67
2022/10/29 00:26:09;;;;;;;13.68;5.05;;;;;;;16.58;77.41;101280.34;4148843;28;20459;-67
2022/10/29 00:28:11;;;;;;;15.57;5.00;;;;;;;16.60;77.53;101278.59;4147636;28;20042;-67
2022/10/29 00:30:14;;;;;;;14.82;5.32;;;;;;;16.62;77.53;101279.50;4147417;28;20092;-67
2022/10/29 00:32:17;;;;;;;13.65;5.40;;;;;;;16.62;77.50;101284.75;4163899;28;20041;-67
2022/10/29 00:34:20;;;;;;;16.58;6.10;;;;;;;16.63;77.58;101282.97;4147085;28;20125;-67
2022/10/29 00:36:27;;;;;;;17.42;5.93;;;;;;;16.66;77.62;101268.13;4148627;28;20038;-67
2022/10/29 00:38:31;;;;;;;13.50;5.72;;;;;;;16.65;77.13;101279.50;4147746;28;20490;-67
2022/10/29 00:40:37;;;;;;;11.35;4.75;;;;;;;16.63;77.51;101289.13;4148570;28;20026;-67
2022/10/29 00:42:40;;;;;;;16.73;5.57;;;;;;;16.60;77.56;101283.84;4148613;28;20045;-66
2022/10/29 00:44:43;;;;;;;12.60;5.13;;;;;;;16.59;77.62;101295.22;4147069;28;20108;-67
2022/10/29 00:46:48;;;;;;;11.00;5.47;;;;;;;16.58;77.67;101299.59;4148512;28;20046;-67
2022/10/29 00:48:54;;;;;;;12.40;5.28;;;;;;;16.56;77.76;101282.97;4148545;28;20038;-67
2022/10/29 00:50:58;;;;;;;12.20;4.65;;;;;;;16.54;77.87;101291.69;4147215;28;20091;-67
2022/10/29 00:53:02;;;;;;;12.90;5.32;;;;;;;16.50;77.95;101293.47;4145073;28;20063;-67
2022/10/29 00:55:08;;;;;;;14.88;5.68;;;;;;;16.49;77.91;101296.94;4130552;28;20042;-66
2022/10/29 00:57:16;;;;;;;12.80;5.13;;;;;;;16.51;77.84;101299.56;4163495;28;20045;-66
2022/10/29 00:59:19;;;;;;;12.00;4.95;;;;;;;16.50;77.96;101292.56;4148395;28;20053;-67
2022/10/29 01:01:22;;;;;;;14.07;5.70;;;;;;;16.52;77.74;101296.09;4148366;28;20088;-66
2022/10/29 01:03:25;;;;;;;13.70;6.35;;;;;;;16.52;77.74;101281.19;4147974;28;20129;-67
2022/10/29 01:05:28;;;;;;;10.40;4.82;;;;;;;16.47;77.78;101290.81;4148252;28;20042;-66
2022/10/29 01:07:32;;;;;;;14.70;5.35;;;;;;;16.47;77.88;101297.81;4146985;28;20119;-66
2022/10/29 01:09:36;;;;;;;14.52;5.25;;;;;;;16.50;77.57;101297.81;4146279;28;20037;-67
2022/10/29 01:11:52;;;;;;;14.63;6.40;;;;;;;16.51;77.55;101295.19;4146755;28;20468;-67
2022/10/29 01:14:06;;;;;;;15.52;5.65;;;;;;;16.50;77.47;101296.09;4146463;28;20080;-66
2022/10/29 01:16:18;;;;;;;13.13;5.50;;;;;;;16.47;77.75;101297.81;4147024;28;20515;-67
2022/10/29 01:18:28;;;;;;;17.88;6.25;;;;;;;16.44;77.65;101303.03;4145822;28;20041;-67
2022/10/29 01:21:04;;;;;;;14.20;6.00;;;;;;;16.39;77.61;101296.03;4147988;28;20124;-66
2022/10/29 01:23:32;;;;;;;9.57;4.38;;;;;;;16.36;77.58;101293.41;4148033;28;20042;-66
2022/10/29 01:25:55;;;;;;;13.82;6.20;;;;;;;16.34;77.54;101289.91;4146931;28;20377;-66
2022/10/29 01:28:09;;;;;;;17.23;5.60;;;;;;;16.32;77.44;101289.00;4141079;28;20037;-67
2022/10/29 01:30:20;;;;;;;15.02;5.60;;;;;;;16.26;77.54;101294.22;4146775;28;20052;-66
2022/10/29 01:32:32;;;;;;;14.75;6.15;;;;;;;16.27;77.49;101295.13;4146699;28;20550;-65
2022/10/29 01:34:42;;;;;;;13.30;5.30;;;;;;;16.24;77.74;101293.38;4145791;28;20049;-66
2022/10/29 01:36:54;;;;;;;13.70;5.18;;;;;;;16.22;77.58;101290.72;4147949;28;20034;-66
2022/10/29 01:39:05;;;;;;;9.93;5.05;;;;;;;16.21;77.69;101295.97;4148023;28;20091;-65
2022/10/29 01:41:14;;;;;;;11.38;5.10;;;;;;;16.19;77.50;101298.59;4129485;28;20109;-65
2022/10/29 01:43:23;;;;;;;19.35;6.15;;;;;;;16.17;77.54;101294.19;4147472;28;20492;-66
2022/10/29 01:45:31;;;;;;;17.85;6.13;;;;;;;16.15;77.83;101295.91;4147969;28;20034;-65
2022/10/29 01:47:40;;;;;;;25.38;6.10;;;;;;;16.14;77.83;101291.56;4146599;28;20042;-65
2022/10/29 01:49:48;;;;;;;13.55;5.50;;;;;;;16.12;77.68;101290.66;4147937;28;20041;-66
2022/10/29 01:51:52;;;;;;;19.10;5.97;;;;;;;16.12;77.95;101286.31;4147792;28;20089;-65
2022/10/29 01:53:57;;;;;;;12.68;5.72;;;;;;;16.11;78.21;101283.69;4146359;28;20041;-65
2022/10/29 01:56:00;;;;;;;13.63;5.38;;;;;;;16.09;77.79;101290.66;4145709;28;20554;-65
2022/10/29 01:58:03;;;;;;;18.23;6.15;;;;;;;16.08;77.95;101287.16;4147733;28;20045;-66
2022/10/29 02:00:09;;;;;;;13.60;5.35;;;;;;;16.09;77.82;101286.31;4146481;28;20046;-66
2022/10/29 02:02:25;;;;;;;13.82;5.47;;;;;;;16.06;77.57;101281.03;4147739;28;20042;-66
2022/10/29 02:04:54;;;;;;;14.50;6.60;;;;;;;16.05;77.62;101285.41;4147408;28;20049;-65
2022/10/29 02:07:06;;;;;;;10.98;6.05;;;;;;;16.01;77.72;101278.38;4144953;28;20107;-65
2022/10/29 02:09:16;;;;;;;20.98;5.53;;;;;;;15.98;77.85;101278.38;4129351;28;20038;-65
2022/10/29 02:11:24;;;;;;;14.93;5.22;;;;;;;15.98;78.00;101267.88;4145601;28;20045;-65
2022/10/29 02:13:31;;;;;;;13.05;5.45;;;;;;;15.96;77.69;101274.88;4147205;28;20038;-66
2022/10/29 02:15:37;;;;;;;18.33;6.78;;;;;;;15.93;78.03;101269.63;4147690;28;20050;-66
2022/10/29 02:17:40;;;;;;;14.90;5.22;;;;;;;15.89;77.69;101273.09;4147696;28;20054;-65
2022/10/29 02:19:43;;;;;;;13.52;5.32;;;;;;;15.86;77.71;101268.69;4130071;28;20105;-66
2022/10/29 02:21:47;;;;;;;14.25;5.93;;;;;;;15.85;77.63;101260.81;4146458;28;20069;-66
2022/10/29 02:23:50;;;;;;;15.25;6.07;;;;;;;15.81;77.54;101261.66;4146514;28;20103;-65
2022/10/29 02:25:53;;;;;;;11.05;5.30;;;;;;;15.78;77.74;101264.25;4147413;28;20084;-66
2022/10/29 02:27:56;;;;;;;17.45;6.43;;;;;;;15.77;78.31;101263.38;4146348;28;20056;-65
2022/10/29 02:30:00;;;;;;;15.60;5.53;;;;;;;15.80;77.98;101259.91;4146237;28;20563;-65
2022/10/29 02:32:02;;;;;;;13.93;5.43;;;;;;;15.80;78.29;101257.28;4162553;28;20095;-65
2022/10/29 02:34:05;;;;;;;15.63;6.07;;;;;;;15.79;78.33;101264.28;4147102;28;20050;-66
2022/10/29 02:36:08;;;;;;;12.88;5.78;;;;;;;15.79;78.39;101256.41;4146152;28;20046;-65
2022/10/29 02:38:12;;;;;;;14.70;6.35;;;;;;;15.81;78.19;101266.91;4146774;28;20045;-65
2022/10/29 02:40:15;;;;;;;12.85;5.40;;;;;;;15.77;78.44;101257.25;4146012;28;20110;-66
2022/10/29 02:42:18;;;;;;;13.23;6.32;;;;;;;15.78;78.44;101253.75;4147332;28;20476;-66
2022/10/29 02:44:21;;;;;;;15.73;7.55;;;;;;;15.78;78.51;101248.50;4147015;28;20038;-66
2022/10/29 02:46:24;;;;;;;15.82;7.22;;;;;;;15.79;78.26;101255.56;4148375;28;20097;-66
2022/10/29 02:48:27;;;;;;;18.85;6.57;;;;;;;15.79;78.56;101255.56;4150410;28;20496;-66
2022/10/29 02:50:29;;;;;;;17.42;7.25;;;;;;;15.78;78.29;101249.41;4149192;28;20112;-66
2022/10/29 02:52:32;;;;;;;16.88;7.47;;;;;;;15.80;78.16;101262.53;4149288;28;20396;-66
2022/10/29 02:54:37;;;;;;;21.60;7.95;;;;;;;15.82;78.16;101255.56;4149807;28;20045;-66
2022/10/29 02:56:40;;;;;;;13.90;6.72;;;;;;;15.83;78.05;101252.94;4150253;28;20038;-66
2022/10/29 02:58:43;;;;;;;15.10;6.60;;;;;;;15.82;78.02;101255.56;4150622;28;20046;-66
2022/10/29 03:00:49;;;;;;;19.20;7.15;;;;;;;15.83;78.20;101257.31;4149563;28;20038;-66
2022/10/29 03:02:52;;;;;;;18.33;6.72;;;;;;;15.85;77.80;101255.56;4141088;28;20037;-66
2022/10/29 03:04:55;;;;;;;17.67;6.73;;;;;;;15.84;77.72;101254.72;4149809;28;20096;-66
2022/10/29 03:06:58;;;;;;;15.07;7.15;;;;;;;15.85;77.73;101250.34;4150142;28;20053;-66
2022/10/29 03:09:01;;;;;;;15.32;5.88;;;;;;;15.82;77.82;101247.69;4147858;28;20046;-66
2022/10/29 03:11:05;;;;;;;11.80;5.57;;;;;;;15.82;77.70;101245.94;4149704;28;20045;-66
2022/10/29 03:13:08;;;;;;;21.02;6.68;;;;;;;15.82;77.40;101253.81;4148577;28;20038;-66
2022/10/29 03:15:11;;;;;;;16.90;6.47;;;;;;;15.82;77.71;101245.06;4164757;28;20057;-66
2022/10/29 03:17:14;;;;;;;11.75;6.22;;;;;;;15.80;77.26;101246.78;4148816;28;20037;-66
2022/10/29 03:19:16;;;;;;;17.20;6.32;;;;;;;15.79;77.78;101251.16;4148747;28;20041;-66
2022/10/29 03:21:19;;;;;;;15.18;6.47;;;;;;;15.79;77.32;101245.94;4148782;28;20042;-66
2022/10/29 03:23:22;;;;;;;17.75;6.50;;;;;;;15.77;77.69;101238.88;4149546;28;20038;-66
2022/10/29 03:25:25;;;;;;;13.35;6.60;;;;;;;15.76;77.39;101239.78;4147733;28;20042;-66
2022/10/29 03:27:29;;;;;;;19.70;6.32;;;;;;;15.77;77.66;101231.03;4131514;28;20050;-66
2022/10/29 03:29:32;;;;;;;15.65;6.32;;;;;;;15.73;77.27;101229.28;4149726;28;20108;-66
2022/10/29 03:31:34;;;;;;;16.65;6.32;;;;;;;15.70;77.31;101231.00;4149841;28;20046;-66
2022/10/29 03:33:37;;;;;;;17.95;5.90;;;;;;;15.68;77.35;101231.84;4149272;28;20030;-66
2022/10/29 03:35:40;;;;;;;11.32;5.65;;;;;;;15.65;77.66;101230.09;4132300;28;20141;-66
2022/10/29 03:37:43;;;;;;;16.98;6.00;;;;;;;15.68;77.25;101227.50;4132171;28;20519;-66
2022/10/29 03:39:46;;;;;;;18.38;6.40;;;;;;;15.66;77.41;101226.59;4147628;28;20096;-66
2022/10/29 03:41:48;;;;;;;20.80;6.57;;;;;;;15.66;77.53;101229.22;4149478;28;20096;-66
2022/10/29 03:43:53;;;;;;;13.10;5.75;;;;;;;15.62;77.67;101235.31;4149420;28;20042;-66
2022/10/29 03:46:00;;;;;;;10.68;5.40;;;;;;;15.60;78.01;101238.81;4148298;28;20046;-66
2022/10/29 03:48:04;;;;;;;12.88;6.28;;;;;;;15.57;77.81;101244.91;4149490;28;20050;-66
2022/10/29 03:50:08;;;;;;;14.73;5.43;;;;;;;15.57;77.55;101247.53;4148306;28;20038;-66
2022/10/29 03:52:11;;;;;;;16.40;6.95;;;;;;;15.60;77.66;101239.69;4149608;28;20543;-66
2022/10/29 03:54:14;;;;;;;20.45;6.97;;;;;;;15.61;77.58;101246.69;4147947;28;20100;-66
2022/10/29 03:56:17;;;;;;;15.00;6.18;;;;;;;15.64;77.68;101251.94;4148160;28;20077;-66
2022/10/29 03:58:20;;;;;;;13.65;5.55;;;;;;;15.65;77.75;101247.56;4131147;28;20527;-66
2022/10/29 04:00:25;;;;;;;15.45;6.05;;;;;;;15.66;77.29;101241.47;4149548;28;20303;-66
2022/10/29 04:02:27;;;;;;;10.77;4.93;;;;;;;15.63;77.76;101250.19;4149679;28;20117;-66
2022/10/29 04:04:30;;;;;;;14.88;5.70;;;;;;;15.64;77.79;101251.94;4148931;28;20198;-66
2022/10/29 04:06:33;;;;;;;14.48;6.55;;;;;;;15.66;77.29;101244.09;4131717;28;20047;-66
2022/10/29 04:08:36;;;;;;;17.55;5.80;;;;;;;15.75;76.94;101244.13;4148473;28;20041;-66
2022/10/29 04:10:43;;;;;;;9.55;4.68;;;;;;;15.77;76.82;101246.75;4148285;28;20034;-66
2022/10/29 04:12:46;;;;;;;15.68;6.75;;;;;;;15.82;76.48;101239.84;4148948;28;20034;-66
2022/10/29 04:14:49;;;;;;;17.55;6.47;;;;;;;15.78;76.25;101243.28;4132524;28;20043;-66
2022/10/29 04:16:54;;;;;;;10.70;4.72;;;;;;;15.77;76.47;101241.50;4131585;28;20060;-66
2022/10/29 04:18:58;;;;;;;19.08;6.07;;;;;;;15.73;76.96;101235.38;4132906;28;20485;-66
2022/10/29 04:21:01;;;;;;;16.55;5.90;;;;;;;15.73;76.76;101237.13;4132986;28;20436;-66
2022/10/29 04:23:24;;;;;;;17.80;5.15;;;;;;;15.68;77.03;101238.00;4132250;28;20126;-66
2022/10/29 04:25:55;;;;;;;9.82;5.50;;;;;;;15.67;77.22;101236.22;4148325;28;20449;-66
2022/10/29 04:28:18;;;;;;;12.15;4.95;;;;;;;15.66;77.62;101234.47;4132569;28;20137;-66
2022/10/29 04:30:40;;;;;;;17.45;5.63;;;;;;;15.67;77.44;101235.34;4131393;28;20085;-66
2022/10/29 04:32:44;;;;;;;14.98;5.60;;;;;;;15.69;77.46;101236.22;4132550;28;20093;-66
2022/10/29 04:34:47;;;;;;;10.95;4.95;;;;;;;15.68;77.32;101232.75;4132242;28;20133;-66
2022/10/29 04:36:51;;;;;;;16.00;6.35;;;;;;;15.69;77.78;101244.97;4132458;28;20046;-66
2022/10/29 04:38:54;;;;;;;14.17;5.83;;;;;;;15.71;77.34;101248.47;4134997;28;20077;-66
2022/10/29 04:40:58;;;;;;;10.07;5.20;;;;;;;15.72;77.14;101246.72;4148567;28;20436;-66
2022/10/29 04:43:01;;;;;;;13.43;5.65;;;;;;;15.73;77.59;101243.25;4163801;28;20092;-66
2022/10/29 04:45:04;;;;;;;15.32;5.57;;;;;;;15.75;77.20;101248.50;4148298;28;20041;-66
2022/10/29 04:47:07;;;;;;;12.25;5.18;;;;;;;15.74;77.77;101249.34;4147562;28;20546;-66
2022/10/29 04:49:11;;;;;;;17.35;5.32;;;;;;;15.76;77.77;101252.88;4148475;28;20057;-66
2022/10/29 04:51:20;;;;;;;11.25;4.72;;;;;;;15.75;77.81;101251.13;4147297;28;20042;-66
2022/10/29 04:53:24;;;;;;;15.73;5.72;;;;;;;15.75;77.53;101249.38;4147156;28;20519;-66
2022/10/29 04:55:27;;;;;;;16.55;5.95;;;;;;;15.75;77.56;101245.88;4147087;28;20080;-66
2022/10/29 04:57:30;;;;;;;14.23;6.07;;;;;;;15.75;77.21;101245.88;4148606;28;20551;-66
2022/10/29 04:59:33;;;;;;;14.20;5.97;;;;;;;15.75;77.75;101244.13;4148444;28;20037;-66
2022/10/29 05:01:35;;;;;;;15.60;6.25;;;;;;;15.73;77.35;101240.63;4146632;28;20034;-66
2022/10/29 05:03:38;;;;;;;13.60;5.85;;;;;;;15.73;77.74;101234.53;4162023;28;20068;-66
2022/10/29 05:05:43;;;;;;;19.75;6.22;;;;;;;15.74;77.78;101236.25;4147013;28;20037;-66
2022/10/29 05:07:46;;;;;;;9.45;4.50;;;;;;;15.71;78.13;101235.38;4148279;28;20499;-66
2022/10/29 05:09:48;;;;;;;16.52;5.47;;;;;;;15.73;77.64;101230.13;4148349;28;20456;-66
2022/10/29 05:11:51;;;;;;;13.02;4.70;;;;;;;15.73;77.71;101231.91;4130930;28;20468;-66
2022/10/29 05:13:54;;;;;;;20.35;6.10;;;;;;;15.73;77.94;101229.28;4146463;28;20459;-66
2022/10/29 05:15:57;;;;;;;14.63;4.93;;;;;;;15.74;77.61;101236.25;4146975;28;20038;-66
2022/10/29 05:18:00;;;;;;;13.00;4.85;;;;;;;15.74;77.80;101231.91;4162452;28;20079;-66
2022/10/29 05:20:03;;;;;;;14.32;5.25;;;;;;;15.75;77.99;101230.16;4146775;28;20075;-66
2022/10/29 05:22:07;;;;;;;14.93;6.25;;;;;;;15.75;78.09;101230.16;4148056;28;20100;-66
2022/10/29 05:24:10;;;;;;;12.63;5.40;;;;;;;15.75;77.73;101227.53;4146505;28;20129;-66
2022/10/29 05:26:13;;;;;;;13.60;5.15;;;;;;;15.75;77.95;101227.53;4146222;28;20116;-66
2022/10/29 05:28:18;;;;;;;15.32;5.68;;;;;;;15.74;78.11;101217.91;4147982;28;20092;-66
2022/10/29 05:30:21;;;;;;;11.23;4.82;;;;;;;15.78;77.69;101227.53;4146066;28;20038;-66
2022/10/29 05:32:24;;;;;;;15.40;6.05;;;;;;;15.75;78.00;101230.16;4147093;28;20443;-66
2022/10/29 05:34:27;;;;;;;15.32;5.50;;;;;;;15.75;78.18;101217.91;4146800;28;20083;-66
2022/10/29 05:36:29;;;;;;;11.13;5.07;;;;;;;15.78;77.70;101217.06;4147937;28;20046;-66
2022/10/29 05:38:34;;;;;;;9.77;4.95;;;;;;;15.78;77.84;101220.56;4147939;28;20108;-66
2022/10/29 05:40:37;;;;;;;12.82;5.72;;;;;;;15.63;77.91;101228.34;4147959;28;20046;-66
2022/10/29 05:42:39;;;;;;;15.07;6.10;;;;;;;15.52;78.07;101223.00;4147936;28;20150;-65
2022/10/29 05:44:48;;;;;;;11.82;4.35;;;;;;;15.51;78.03;101232.63;4147599;28;20041;-66
2022/10/29 05:46:51;;;;;;;13.80;4.88;;;;;;;15.50;78.30;101232.63;4147111;28;20112;-66
2022/10/29 05:48:54;;;;;;;10.48;4.82;;;;;;;15.53;78.16;101227.41;4147888;28;20041;-66
2022/10/29 05:50:57;;;;;;;12.52;5.07;;;;;;;15.61;77.77;101228.34;4146596;28;20046;-66
2022/10/29 05:53:01;;;;;;;17.02;6.05;;;;;;;15.71;77.04;101226.63;4146642;28;20049;-66
2022/10/29 05:55:07;;;;;;;12.18;4.65;;;;;;;15.69;77.29;101233.59;4147279;28;20042;-66
2022/10/29 05:57:09;;;;;;;14.18;5.75;;;;;;;15.68;77.08;101227.50;4147644;28;20065;-66
2022/10/29 05:59:12;;;;;;;10.70;4.95;;;;;;;15.68;77.05;101229.22;4147557;28;20519;-66
2022/10/29 06:01:15;;;;;;;11.27;5.68;;;;;;;15.69;77.21;101228.38;4145983;28;20092;-66
2022/10/29 06:03:20;;;;;;;13.80;5.78;;;;;;;15.73;77.49;101226.66;4146373;28;20046;-66
2022/10/29 06:05:23;;;;;;;;;;;;;;;15.62;77.84;101222.19;4146640;28;20119;-66
2022/10/29 06:07:25;;;;;;;12.98;4.38;;;;;;;15.65;77.79;101227.50;4146111;28;19928;-66
2022/10/29 06:09:28;;;;;;;10.93;5.78;;;;;;;15.65;78.04;101223.97;4147446;28;20049;-66
2022/10/29 06:11:32;;;;;;;10.45;3.80;;;;;;;15.67;77.95;101228.34;4146148;28;20163;-66
2022/10/29 06:13:35;;;;;;;9.32;4.40;;;;;;;15.71;77.45;101226.63;4146945;28;20566;-66
2022/10/29 06:15:38;;;;;;;16.33;5.97;;;;;;;15.74;77.59;101231.00;4146650;28;20042;-66
2022/10/29 06:17:41;;;;;;;20.88;5.05;;;;;;;15.77;76.90;101231.03;4144963;28;20408;-69
2022/10/29 06:19:44;;;;;;;15.85;4.97;;;;;;;15.73;76.75;101237.13;4146073;28;20042;-66
2022/10/29 06:21:47;;;;;;;10.27;4.95;;;;;;;15.66;76.86;101237.09;4149027;28;20050;-66
2022/10/29 06:23:52;;;;;;;21.38;5.38;;;;;;;15.67;76.38;101230.97;4150428;28;20046;-66
2022/10/29 06:25:58;;;;;;;16.23;5.80;;;;;;;15.71;76.54;101222.28;4149508;28;20404;-66
2022/10/29 06:28:04;;;;;;;12.32;4.70;;;;;;;15.76;76.94;101231.91;4150555;28;20041;-66
2022/10/29 06:30:08;;;;;;;12.57;5.97;;;;;;;15.78;76.39;101230.16;4133141;28;20105;-66
2022/10/29 06:32:11;;;;;;;15.85;5.45;;;;;;;15.77;76.99;101226.69;4132901;28;20046;-66
2022/10/29 06:34:15;;;;;;;15.13;5.20;;;;;;;15.78;77.04;101227.53;4149990;28;20034;-66
2022/10/29 06:36:18;;;;;;;14.60;4.90;;;;;;;15.79;76.99;101234.56;4149236;28;20546;-66
2022/10/29 06:38:20;;;;;;;11.18;4.75;;;;;;;15.77;76.74;101226.69;4150601;28;20281;-66
2022/10/29 06:40:24;;;;;;;12.40;5.38;;;;;;;15.79;77.03;101231.97;4150165;28;20041;-66
2022/10/29 06:42:26;;;;;;;19.15;5.50;;;;;;;15.81;76.95;101236.34;4150446;28;20038;-66
2022/10/29 06:44:31;;;;;;;12.05;4.38;;;;;;;15.83;76.57;101233.72;4150153;28;20488;-66
2022/10/29 06:46:34;;;;;;;10.73;4.65;;;;;;;15.79;76.71;101231.97;4150392;28;20064;-66
2022/10/29 06:48:37;;;;;;;11.40;4.68;;;;;;;15.71;77.13;101232.75;4150390;28;20046;-66
2022/10/29 06:50:40;;;;;;;11.38;5.28;;;;;;;15.59;77.36;101237.03;4149421;28;20480;-66
2022/10/29 06:52:42;;;;;;;10.75;5.15;;;;;;;15.50;77.29;101241.34;4148947;28;20046;-66
2022/10/29 06:54:45;;;;;;;18.33;5.07;;;;;;;15.42;78.11;101236.94;4149839;28;20042;-66
2022/10/29 06:56:48;;;;;;;10.93;5.20;;;;;;;15.45;77.76;101239.56;4150480;28;20042;-66
2022/10/29 06:58:51;;;;;;;14.57;5.40;;;;;;;15.45;77.83;101239.56;4165569;28;20046;-66
2022/10/29 07:00:55;;;;;;;12.10;5.50;;;;;;;15.47;77.17;101240.47;4149068;28;20108;-66
2022/10/29 07:03:02;;;;;;;13.57;4.88;;;;;;;15.42;77.61;101242.16;4149909;28;20476;-66
2022/10/29 07:05:05;;;;;;;12.45;5.32;;;;;;;15.40;78.01;101246.53;4149056;28;20041;-66
2022/10/29 07:07:08;;;;;;;10.38;4.63;;;;;;;15.39;77.83;101250.91;4150084;28;20480;-66
2022/10/29 07:09:10;;;;;;;10.00;4.75;;;;;;;15.41;77.56;101249.16;4148944;28;20046;-66
2022/10/29 07:11:13;;;;;;;8.68;4.68;;;;;;;15.46;77.70;101244.84;4148871;28;20049;-66
2022/10/29 07:13:16;;;;;;;10.30;5.45;;;;;;;15.47;77.38;101249.19;4147496;28;20045;-66
2022/10/29 07:15:19;;;;;;;12.27;4.82;;;;;;;15.48;77.95;101253.59;4155821;28;20133;-66
2022/10/29 07:17:30;;;;;;;15.63;6.30;;;;;;;15.47;77.84;101250.94;4149922;28;20037;-66
2022/10/29 07:19:33;;;;;;;15.40;5.47;;;;;;;15.43;77.64;101252.66;4149871;28;20041;-66
2022/10/29 07:21:35;;;;;;;14.25;5.30;;;;;;;15.48;77.40;101255.34;4148844;28;20038;-66
2022/10/29 07:23:38;;;;;;;9.95;4.53;;;;;;;15.56;77.60;101258.88;4149550;28;20034;-66
2022/10/29 07:25:42;;;;;;;10.48;4.97;;;;;;;15.59;77.38;101263.25;4149861;28;20065;-66
2022/10/29 07:27:45;;;;;;;15.85;5.18;;;;;;;15.58;77.57;101261.50;4148713;28;20065;-66
2022/10/29 07:29:48;;;;;;;16.90;5.75;;;;;;;15.61;77.50;101258.88;4147860;28;20133;-66
2022/10/29 07:31:51;;;;;;;11.25;4.95;;;;;;;15.72;77.10;101265.09;4141888;28;20034;-66
2022/10/29 07:33:55;;;;;;;11.60;5.28;;;;;;;15.77;77.67;101262.47;4153975;28;20440;-66
2022/10/29 07:35:58;;;;;;;;;;;;;;;15.70;77.84;101259.81;4150002;28;20418;-66
2022/10/29 07:38:03;;;;;;;17.80;5.20;;;;;;;15.81;77.96;101266.91;4149681;28;19964;-66
2022/10/29 07:40:13;;;;;;;12.10;5.32;;;;;;;15.87;77.32;101264.31;4132178;28;20057;-66
2022/10/29 07:42:15;;;;;;;12.73;5.10;;;;;;;15.89;77.68;101267.84;4149643;28;20557;-66
2022/10/29 07:44:18;;;;;;;12.32;5.40;;;;;;;15.92;77.10;101262.59;4147969;28;20050;-66
2022/10/29 07:46:21;;;;;;;13.65;5.07;;;;;;;15.91;77.44;101271.34;4148272;28;20038;-66
2022/10/29 07:48:24;;;;;;;13.07;5.47;;;;;;;15.94;76.67;101260.00;4147956;28;20088;-66
2022/10/29 07:50:29;;;;;;;10.32;4.72;;;;;;;15.97;76.82;101268.72;4149475;28;20189;-66
2022/10/29 07:52:32;;;;;;;11.93;5.00;;;;;;;15.99;76.44;101264.41;4149486;28;20034;-66
2022/10/29 07:54:34;;;;;;;12.45;5.05;;;;;;;15.98;76.56;101275.75;4147791;28;20050;-67
2022/10/29 07:56:37;;;;;;;14.43;5.60;;;;;;;15.95;76.55;101267.88;4148308;28;20042;-66
2022/10/29 07:58:45;;;;;;;13.80;5.30;;;;;;;15.96;76.57;101268.72;4149296;28;20503;-66
2022/10/29 08:00:48;;;;;;;13.25;5.75;;;;;;;15.93;76.66;101271.34;4149595;28;20037;-66
2022/10/29 08:02:52;;;;;;;12.90;5.47;;;;;;;16.00;76.58;101265.25;4148255;28;20040;-66
2022/10/29 08:04:55;;;;;;;14.65;5.82;;;;;;;16.01;76.61;101267.88;4148925;28;20037;-66
2022/10/29 08:06:59;;;;;;;13.15;4.95;;;;;;;16.06;76.59;101273.16;4149259;28;20104;-66
2022/10/29 08:09:02;;;;;;;10.65;5.10;;;;;;;16.14;76.58;101267.97;4149229;28;20046;-66
2022/10/29 08:11:05;;;;;;;14.65;4.70;;;;;;;16.18;76.22;101281.09;4149138;28;20042;-66
2022/10/29 08:13:08;;;;;;;9.88;4.60;;;;;;;16.18;76.06;101273.22;4147729;28;20050;-66
2022/10/29 08:15:11;;;;;;;11.57;4.80;;;;;;;16.24;76.07;101282.88;4147555;28;20048;-66
2022/10/29 08:17:14;;;;;;;10.23;5.40;;;;;;;16.26;76.28;101280.25;4130843;28;20096;-66
2022/10/29 08:19:17;;;;;;;13.35;4.97;;;;;;;16.31;76.05;101276.78;4131556;28;20455;-66
2022/10/29 08:21:20;;;;;;;12.20;4.80;;;;;;;16.37;75.76;101283.78;4146632;28;20096;-66
2022/10/29 08:23:24;;;;;;;12.48;5.55;;;;;;;16.43;75.70;101280.28;4148260;28;20030;-66
2022/10/29 08:25:27;;;;;;;16.95;5.72;;;;;;;16.43;75.77;101281.19;4148872;28;20496;-66
2022/10/29 08:27:30;;;;;;;15.88;5.10;;;;;;;16.42;75.88;101279.41;4148753;28;20042;-66
2022/10/29 08:29:32;;;;;;;11.05;4.93;;;;;;;16.42;75.54;101282.03;4147716;28;20042;-66
2022/10/29 08:31:35;;;;;;;12.23;5.78;;;;;;;16.46;75.35;101275.94;4148801;28;20037;-66
2022/10/29 08:33:38;;;;;;;10.85;4.70;;;;;;;16.45;75.34;101273.31;4148527;28;20049;-66
2022/10/29 08:35:41;;;;;;;12.27;4.82;;;;;;;16.46;75.33;101277.69;4147496;28;20034;-66
2022/10/29 08:37:44;;;;;;;11.45;4.75;;;;;;;16.54;75.42;101279.47;4148076;28;20038;-66
2022/10/29 08:39:48;;;;;;;10.07;4.80;;;;;;;16.60;74.82;101273.34;4147352;28;20072;-66
2022/10/29 08:42:02;;;;;;;11.88;4.53;;;;;;;16.65;74.99;101271.63;4148674;28;20492;-66
2022/10/29 08:44:23;;;;;;;9.73;4.47;;;;;;;16.68;74.88;101271.63;4129282;28;20092;-66
2022/10/29 08:46:37;;;;;;;8.65;4.45;;;;;;;16.72;74.72;101270.75;4148485;28;20041;-66
2022/10/29 08:48:47;;;;;;;13.73;4.30;;;;;;;16.75;74.59;101270.75;4147382;28;20428;-66
2022/10/29 08:50:53;;;;;;;14.30;5.05;;;;;;;16.72;74.27;101273.38;4148578;28;20100;-66
2022/10/29 08:52:56;;;;;;;8.80;4.35;;;;;;;16.73;74.25;101276.88;4147432;28;20034;-66
2022/10/29 08:55:24;;;;;;;12.32;4.75;;;;;;;16.79;74.05;101273.38;4144461;28;20113;-66
2022/10/29 08:57:33;;;;;;;11.43;4.78;;;;;;;16.86;74.18;101275.16;4148439;28;20034;-66
2022/10/29 08:59:43;;;;;;;17.33;6.30;;;;;;;16.86;73.96;101277.78;4148510;28;20038;-66
2022/10/29 09:01:46;;;;;;;13.70;4.45;;;;;;;16.89;74.37;101270.81;4148418;28;20045;-65
2022/10/29 09:03:50;;;;;;;13.95;5.05;;;;;;;16.87;73.71;101279.53;4163145;28;20590;-66
2022/10/29 09:06:04;;;;;;;16.17;5.03;;;;;;;16.92;73.48;101285.69;4147132;28;20042;-66
2022/10/29 09:08:22;;;;;;;17.85;5.40;;;;;;;16.93;73.73;101272.56;4147410;28;20045;-65
2022/10/29 09:10:32;;;;;;;20.52;6.15;;;;;;;16.94;73.58;101273.44;4148297;28;20045;-65
2022/10/29 09:12:55;;;;;;;16.77;4.83;;;;;;;16.84;73.34;101276.91;4131197;28;20052;-66
2022/10/29 09:15:30;;;;;;;13.98;4.88;;;;;;;16.88;73.28;101279.56;4147805;28;20041;-66
2022/10/29 09:17:39;;;;;;;11.95;4.90;;;;;;;16.92;73.14;101273.44;4143815;28;20046;-66
2022/10/29 09:19:59;;;;;;;14.63;5.07;;;;;;;17.02;72.94;101261.19;4147056;28;20399;-66
2022/10/29 09:22:13;;;;;;;14.38;4.57;;;;;;;16.97;72.96;101269.94;4140323;28;20046;-66
2022/10/29 09:24:28;;;;;;;10.50;4.47;;;;;;;17.08;72.50;101266.47;4147674;28;20050;-66
2022/10/29 09:26:40;;;;;;;11.73;4.70;;;;;;;17.06;72.62;101272.59;4148068;28;20038;-66
2022/10/29 09:28:55;;;;;;;17.23;5.03;;;;;;;17.15;72.89;101269.09;4148070;28;20065;-66
2022/10/29 09:31:07;;;;;;;12.60;4.72;;;;;;;17.26;72.23;101259.44;4146758;28;20384;-66
2022/10/29 09:33:15;;;;;;;13.15;4.43;;;;;;;17.40;71.94;101272.56;4147187;28;20038;-67
2022/10/29 09:35:19;;;;;;;13.27;4.68;;;;;;;17.53;71.35;101265.53;4146688;28;20038;-66
2022/10/29 09:37:27;;;;;;;14.18;5.00;;;;;;;17.57;71.23;101264.66;4147858;28;20124;-66